sensor_id;sensor_type;location;lat;lon;timestamp;temperature;humidity
5779;DHT22;2916;49.798;10.022;2024-01-30T00:01:06;0.50;75.50
5779;DHT22;2916;49.798;10.022;2024-01-30T00:03:33;0.60;78.40
5779;DHT22;2916;49.798;10.022;2024-01-30T00:06:00;0.50;79.50
5779;DHT22;2916;49.798;10.022;2024-01-30T00:08:30;0.50;81.10
5779;DHT22;2916;49.798;10.022;2024-01-30T00:10:57;0.50;81.90
5779;DHT22;2916;49.798;10.022;2024-01-30T00:13:24;0.50;82.20
5779;DHT22;2916;49.798;10.022;2024-01-30T00:15:51;0.50;82.70
5779;DHT22;2916;49.798;10.022;2024-01-30T00:18:18;0.50;82.90
5779;DHT22;2916;49.798;10.022;2024-01-30T00:20:45;0.40;82.10
5779;DHT22;2916;49.798;10.022;2024-01-30T00:23:12;0.40;83.50
5779;DHT22;2916;49.798;10.022;2024-01-30T00:25:41;0.40;84.20
5779;DHT22;2916;49.798;10.022;2024-01-30T00:28:08;0.40;86.60
5779;DHT22;2916;49.798;10.022;2024-01-30T00:30:34;0.40;87.80
5779;DHT22;2916;49.798;10.022;2024-01-30T00:33:01;0.40;90.30
5779;DHT22;2916;49.798;10.022;2024-01-30T00:35:28;0.40;91.60
5779;DHT22;2916;49.798;10.022;2024-01-30T00:37:55;0.40;92.70
5779;DHT22;2916;49.798;10.022;2024-01-30T00:40:22;0.40;92.90
5779;DHT22;2916;49.798;10.022;2024-01-30T00:42:51;0.40;93.00
5779;DHT22;2916;49.798;10.022;2024-01-30T00:45:18;0.30;92.00
5779;DHT22;2916;49.798;10.022;2024-01-30T00:47:45;0.30;92.50
5779;DHT22;2916;49.798;10.022;2024-01-30T00:50:12;0.30;92.30
5779;DHT22;2916;49.798;10.022;2024-01-30T00:52:39;0.30;91.70
5779;DHT22;2916;49.798;10.022;2024-01-30T00:55:07;0.30;90.90
5779;DHT22;2916;49.798;10.022;2024-01-30T00:57:34;0.20;90.10
5779;DHT22;2916;49.798;10.022;2024-01-30T01:00:03;0.20;88.10
5779;DHT22;2916;49.798;10.022;2024-01-30T01:02:31;0.20;87.00
5779;DHT22;2916;49.798;10.022;2024-01-30T01:04:58;0.20;87.90
5779;DHT22;2916;49.798;10.022;2024-01-30T01:07:25;0.30;89.90
5779;DHT22;2916;49.798;10.022;2024-01-30T01:09:52;0.30;90.30
5779;DHT22;2916;49.798;10.022;2024-01-30T01:12:19;0.20;89.30
5779;DHT22;2916;49.798;10.022;2024-01-30T01:14:46;0.10;86.00
5779;DHT22;2916;49.798;10.022;2024-01-30T01:17:14;0.10;87.90
5779;DHT22;2916;49.798;10.022;2024-01-30T01:19:41;0.00;86.90
5779;DHT22;2916;49.798;10.022;2024-01-30T01:22:08;0.10;87.00
5779;DHT22;2916;49.798;10.022;2024-01-30T01:24:36;0.00;87.80
5779;DHT22;2916;49.798;10.022;2024-01-30T01:27:03;0.00;87.00
5779;DHT22;2916;49.798;10.022;2024-01-30T01:29:30;0.00;87.60
5779;DHT22;2916;49.798;10.022;2024-01-30T01:31:57;0.00;88.20
5779;DHT22;2916;49.798;10.022;2024-01-30T01:34:25;0.00;90.80
5779;DHT22;2916;49.798;10.022;2024-01-30T01:36:52;0.10;92.30
5779;DHT22;2916;49.798;10.022;2024-01-30T01:39:21;0.10;94.50
5779;DHT22;2916;49.798;10.022;2024-01-30T01:41:48;0.10;95.80
5779;DHT22;2916;49.798;10.022;2024-01-30T01:44:15;0.10;95.80
5779;DHT22;2916;49.798;10.022;2024-01-30T01:46:42;0.10;97.70
5779;DHT22;2916;49.798;10.022;2024-01-30T01:49:09;0.10;98.50
5779;DHT22;2916;49.798;10.022;2024-01-30T01:51:38;0.10;99.10
5779;DHT22;2916;49.798;10.022;2024-01-30T01:54:07;0.20;99.90
5779;DHT22;2916;49.798;10.022;2024-01-30T01:56:34;0.10;99.90
5779;DHT22;2916;49.798;10.022;2024-01-30T01:59:05;0.10;99.40
5779;DHT22;2916;49.798;10.022;2024-01-30T02:01:33;0.10;99.60
5779;DHT22;2916;49.798;10.022;2024-01-30T02:04:00;0.00;99.20
5779;DHT22;2916;49.798;10.022;2024-01-30T02:06:28;0.10;99.30
5779;DHT22;2916;49.798;10.022;2024-01-30T02:08:56;0.00;98.30
5779;DHT22;2916;49.798;10.022;2024-01-30T02:11:23;0.00;97.60
5779;DHT22;2916;49.798;10.022;2024-01-30T02:13:50;-0.10;96.90
5779;DHT22;2916;49.798;10.022;2024-01-30T02:16:17;-0.10;97.10
5779;DHT22;2916;49.798;10.022;2024-01-30T02:18:44;0.00;97.20
5779;DHT22;2916;49.798;10.022;2024-01-30T02:21:15;0.00;97.80
5779;DHT22;2916;49.798;10.022;2024-01-30T02:23:43;-0.10;97.30
5779;DHT22;2916;49.798;10.022;2024-01-30T02:26:10;0.00;97.20
5779;DHT22;2916;49.798;10.022;2024-01-30T02:28:38;0.00;97.20
5779;DHT22;2916;49.798;10.022;2024-01-30T02:31:05;0.00;97.10
5779;DHT22;2916;49.798;10.022;2024-01-30T02:33:32;0.00;96.50
5779;DHT22;2916;49.798;10.022;2024-01-30T02:35:59;0.00;96.20
5779;DHT22;2916;49.798;10.022;2024-01-30T02:38:27;0.00;96.20
5779;DHT22;2916;49.798;10.022;2024-01-30T02:40:54;0.10;95.90
5779;DHT22;2916;49.798;10.022;2024-01-30T02:43:22;0.10;97.10
5779;DHT22;2916;49.798;10.022;2024-01-30T02:45:49;0.10;97.40
5779;DHT22;2916;49.798;10.022;2024-01-30T02:48:16;0.10;97.10
5779;DHT22;2916;49.798;10.022;2024-01-30T02:50:43;0.00;95.90
5779;DHT22;2916;49.798;10.022;2024-01-30T02:53:10;-0.10;95.30
5779;DHT22;2916;49.798;10.022;2024-01-30T02:55:38;-0.10;94.60
5779;DHT22;2916;49.798;10.022;2024-01-30T02:58:05;-0.10;94.40
5779;DHT22;2916;49.798;10.022;2024-01-30T03:00:32;-0.10;93.90
5779;DHT22;2916;49.798;10.022;2024-01-30T03:02:59;-0.10;93.60
5779;DHT22;2916;49.798;10.022;2024-01-30T03:05:26;-0.10;93.30
5779;DHT22;2916;49.798;10.022;2024-01-30T03:07:53;-0.10;92.80
5779;DHT22;2916;49.798;10.022;2024-01-30T03:10:20;-0.10;93.70
5779;DHT22;2916;49.798;10.022;2024-01-30T03:12:48;-0.20;93.20
5779;DHT22;2916;49.798;10.022;2024-01-30T03:15:15;-0.10;93.30
5779;DHT22;2916;49.798;10.022;2024-01-30T03:17:42;-0.10;94.00
5779;DHT22;2916;49.798;10.022;2024-01-30T03:20:10;-0.10;92.80
5779;DHT22;2916;49.798;10.022;2024-01-30T03:22:37;-0.20;92.60
5779;DHT22;2916;49.798;10.022;2024-01-30T03:25:04;-0.20;93.20
5779;DHT22;2916;49.798;10.022;2024-01-30T03:27:31;-0.20;93.40
5779;DHT22;2916;49.798;10.022;2024-01-30T03:30:00;-0.20;93.70
5779;DHT22;2916;49.798;10.022;2024-01-30T03:32:27;-0.20;93.80
5779;DHT22;2916;49.798;10.022;2024-01-30T03:34:54;-0.10;94.50
5779;DHT22;2916;49.798;10.022;2024-01-30T03:37:21;-0.10;96.50
5779;DHT22;2916;49.798;10.022;2024-01-30T03:39:48;-0.10;97.60
5779;DHT22;2916;49.798;10.022;2024-01-30T03:42:15;-0.10;98.10
5779;DHT22;2916;49.798;10.022;2024-01-30T03:44:43;-0.10;98.30
5779;DHT22;2916;49.798;10.022;2024-01-30T03:47:11;-0.20;98.50
5779;DHT22;2916;49.798;10.022;2024-01-30T03:49:38;-0.10;99.10
5779;DHT22;2916;49.798;10.022;2024-01-30T03:52:05;-0.10;99.60
5779;DHT22;2916;49.798;10.022;2024-01-30T03:54:32;-0.10;99.60
5779;DHT22;2916;49.798;10.022;2024-01-30T03:56:59;-0.10;99.90
5779;DHT22;2916;49.798;10.022;2024-01-30T03:59:26;-0.10;99.90
5779;DHT22;2916;49.798;10.022;2024-01-30T04:01:53;-0.20;98.60
5779;DHT22;2916;49.798;10.022;2024-01-30T04:04:21;-0.20;97.80
5779;DHT22;2916;49.798;10.022;2024-01-30T04:06:48;-0.30;97.40
5779;DHT22;2916;49.798;10.022;2024-01-30T04:09:15;-0.30;97.50
5779;DHT22;2916;49.798;10.022;2024-01-30T04:11:42;-0.20;96.90
5779;DHT22;2916;49.798;10.022;2024-01-30T04:14:10;-0.30;95.50
5779;DHT22;2916;49.798;10.022;2024-01-30T04:16:37;-0.40;95.00
5779;DHT22;2916;49.798;10.022;2024-01-30T04:19:04;-0.30;95.40
5779;DHT22;2916;49.798;10.022;2024-01-30T04:21:32;-0.30;94.90
5779;DHT22;2916;49.798;10.022;2024-01-30T04:23:59;-0.40;94.00
5779;DHT22;2916;49.798;10.022;2024-01-30T04:26:26;-0.50;93.70
5779;DHT22;2916;49.798;10.022;2024-01-30T04:28:53;-0.50;93.60
5779;DHT22;2916;49.798;10.022;2024-01-30T04:31:20;-0.50;93.80
5779;DHT22;2916;49.798;10.022;2024-01-30T04:33:47;-0.50;94.10
5779;DHT22;2916;49.798;10.022;2024-01-30T04:36:14;-0.50;94.50
5779;DHT22;2916;49.798;10.022;2024-01-30T04:38:42;-0.50;94.40
5779;DHT22;2916;49.798;10.022;2024-01-30T04:41:09;-0.50;94.40
5779;DHT22;2916;49.798;10.022;2024-01-30T04:43:36;-0.50;94.40
5779;DHT22;2916;49.798;10.022;2024-01-30T04:46:04;-0.50;94.50
5779;DHT22;2916;49.798;10.022;2024-01-30T04:48:31;-0.50;94.60
5779;DHT22;2916;49.798;10.022;2024-01-30T04:50:58;-0.40;95.30
5779;DHT22;2916;49.798;10.022;2024-01-30T04:53:29;-0.50;95.10
5779;DHT22;2916;49.798;10.022;2024-01-30T04:55:57;-0.40;94.70
5779;DHT22;2916;49.798;10.022;2024-01-30T04:58:24;-0.50;94.40
5779;DHT22;2916;49.798;10.022;2024-01-30T05:00:51;-0.50;94.70
5779;DHT22;2916;49.798;10.022;2024-01-30T05:03:19;-0.50;94.50
5779;DHT22;2916;49.798;10.022;2024-01-30T05:05:48;-0.60;93.70
5779;DHT22;2916;49.798;10.022;2024-01-30T05:08:15;-0.60;93.30
5779;DHT22;2916;49.798;10.022;2024-01-30T05:10:42;-0.60;93.30
5779;DHT22;2916;49.798;10.022;2024-01-30T05:13:10;-0.50;93.50
5779;DHT22;2916;49.798;10.022;2024-01-30T05:15:39;-0.50;94.00
5779;DHT22;2916;49.798;10.022;2024-01-30T05:18:06;-0.50;94.10
5779;DHT22;2916;49.798;10.022;2024-01-30T05:20:33;-0.50;94.10
5779;DHT22;2916;49.798;10.022;2024-01-30T05:23:00;-0.50;93.70
5779;DHT22;2916;49.798;10.022;2024-01-30T05:25:27;-0.50;94.50
5779;DHT22;2916;49.798;10.022;2024-01-30T05:27:54;-0.50;94.50
5779;DHT22;2916;49.798;10.022;2024-01-30T05:30:23;-0.50;95.30
5779;DHT22;2916;49.798;10.022;2024-01-30T05:32:50;-0.50;95.70
5779;DHT22;2916;49.798;10.022;2024-01-30T05:35:18;-0.50;96.60
5779;DHT22;2916;49.798;10.022;2024-01-30T05:37:47;-0.50;97.20
5779;DHT22;2916;49.798;10.022;2024-01-30T05:40:14;-0.50;97.80
5779;DHT22;2916;49.798;10.022;2024-01-30T05:42:41;-0.50;98.70
5779;DHT22;2916;49.798;10.022;2024-01-30T05:45:08;-0.40;99.60
5779;DHT22;2916;49.798;10.022;2024-01-30T05:47:36;-0.40;99.90
5779;DHT22;2916;49.798;10.022;2024-01-30T05:50:04;-0.50;99.90
5779;DHT22;2916;49.798;10.022;2024-01-30T05:52:31;-0.50;99.90
5779;DHT22;2916;49.798;10.022;2024-01-30T05:54:58;-0.50;99.90
5779;DHT22;2916;49.798;10.022;2024-01-30T05:57:25;-0.50;99.90
5779;DHT22;2916;49.798;10.022;2024-01-30T05:59:52;-0.50;99.90
5779;DHT22;2916;49.798;10.022;2024-01-30T06:02:19;-0.50;99.90
5779;DHT22;2916;49.798;10.022;2024-01-30T06:04:47;-0.50;99.90
5779;DHT22;2916;49.798;10.022;2024-01-30T06:07:14;-0.50;99.90
5779;DHT22;2916;49.798;10.022;2024-01-30T06:09:41;-0.50;99.90
5779;DHT22;2916;49.798;10.022;2024-01-30T06:12:08;-0.50;99.90
5779;DHT22;2916;49.798;10.022;2024-01-30T06:14:37;-0.50;99.90
5779;DHT22;2916;49.798;10.022;2024-01-30T06:17:04;-0.60;99.90
5779;DHT22;2916;49.798;10.022;2024-01-30T06:19:31;-0.60;99.90
5779;DHT22;2916;49.798;10.022;2024-01-30T06:22:00;-0.60;99.90
5779;DHT22;2916;49.798;10.022;2024-01-30T06:24:29;-0.60;99.90
5779;DHT22;2916;49.798;10.022;2024-01-30T06:26:56;-0.70;99.90
5779;DHT22;2916;49.798;10.022;2024-01-30T06:29:23;-0.60;99.90
5779;DHT22;2916;49.798;10.022;2024-01-30T06:31:52;-0.60;99.90
5779;DHT22;2916;49.798;10.022;2024-01-30T06:34:19;-0.70;99.90
5779;DHT22;2916;49.798;10.022;2024-01-30T06:36:46;-0.60;99.90
5779;DHT22;2916;49.798;10.022;2024-01-30T06:39:14;-0.50;99.90
5779;DHT22;2916;49.798;10.022;2024-01-30T06:41:41;-0.60;99.90
5779;DHT22;2916;49.798;10.022;2024-01-30T06:44:08;-0.60;99.10
5779;DHT22;2916;49.798;10.022;2024-01-30T06:46:35;-0.70;98.50
5779;DHT22;2916;49.798;10.022;2024-01-30T06:49:02;-0.70;97.40
5779;DHT22;2916;49.798;10.022;2024-01-30T06:51:29;-0.70;97.00
5779;DHT22;2916;49.798;10.022;2024-01-30T06:53:56;-0.80;96.00
5779;DHT22;2916;49.798;10.022;2024-01-30T06:56:24;-0.80;95.00
5779;DHT22;2916;49.798;10.022;2024-01-30T06:58:51;-0.70;95.50
5779;DHT22;2916;49.798;10.022;2024-01-30T07:01:18;-0.70;95.30
5779;DHT22;2916;49.798;10.022;2024-01-30T07:03:45;-0.70;94.90
5779;DHT22;2916;49.798;10.022;2024-01-30T07:06:12;-0.70;95.30
5779;DHT22;2916;49.798;10.022;2024-01-30T07:08:39;-0.70;96.10
5779;DHT22;2916;49.798;10.022;2024-01-30T07:11:06;-0.60;96.70
5779;DHT22;2916;49.798;10.022;2024-01-30T07:13:35;-0.60;96.80
5779;DHT22;2916;49.798;10.022;2024-01-30T07:16:02;-0.60;96.30
5779;DHT22;2916;49.798;10.022;2024-01-30T07:18:29;-0.70;96.00
5779;DHT22;2916;49.798;10.022;2024-01-30T07:20:56;-0.70;96.20
5779;DHT22;2916;49.798;10.022;2024-01-30T07:23:23;-0.60;95.90
5779;DHT22;2916;49.798;10.022;2024-01-30T07:25:50;-0.60;95.80
5779;DHT22;2916;49.798;10.022;2024-01-30T07:28:17;-0.60;95.60
5779;DHT22;2916;49.798;10.022;2024-01-30T07:30:45;-0.60;95.80
5779;DHT22;2916;49.798;10.022;2024-01-30T07:33:13;-0.50;96.70
5779;DHT22;2916;49.798;10.022;2024-01-30T07:35:40;-0.50;97.10
5779;DHT22;2916;49.798;10.022;2024-01-30T07:38:07;-0.50;97.10
5779;DHT22;2916;49.798;10.022;2024-01-30T07:40:34;-0.50;96.70
5779;DHT22;2916;49.798;10.022;2024-01-30T07:43:01;-0.50;96.80
5779;DHT22;2916;49.798;10.022;2024-01-30T07:45:29;-0.40;96.90
5779;DHT22;2916;49.798;10.022;2024-01-30T07:47:59;-0.40;96.60
5779;DHT22;2916;49.798;10.022;2024-01-30T07:50:26;-0.40;96.80
5779;DHT22;2916;49.798;10.022;2024-01-30T07:52:53;-0.30;97.20
5779;DHT22;2916;49.798;10.022;2024-01-30T07:55:20;-0.30;97.60
5779;DHT22;2916;49.798;10.022;2024-01-30T07:57:50;-0.20;98.00
5779;DHT22;2916;49.798;10.022;2024-01-30T08:00:17;-0.10;98.80
5779;DHT22;2916;49.798;10.022;2024-01-30T08:02:45;-0.10;99.40
5779;DHT22;2916;49.798;10.022;2024-01-30T08:05:13;0.00;99.90
5779;DHT22;2916;49.798;10.022;2024-01-30T08:07:41;0.10;99.90
5779;DHT22;2916;49.798;10.022;2024-01-30T08:10:08;0.10;99.90
5779;DHT22;2916;49.798;10.022;2024-01-30T08:12:35;0.20;99.90
5779;DHT22;2916;49.798;10.022;2024-01-30T08:15:03;0.30;99.90
5779;DHT22;2916;49.798;10.022;2024-01-30T08:17:30;0.30;99.90
5779;DHT22;2916;49.798;10.022;2024-01-30T08:19:57;0.30;99.90
5779;DHT22;2916;49.798;10.022;2024-01-30T08:22:25;0.40;99.90
5779;DHT22;2916;49.798;10.022;2024-01-30T08:24:52;0.50;99.90
5779;DHT22;2916;49.798;10.022;2024-01-30T08:27:19;0.50;99.90
5779;DHT22;2916;49.798;10.022;2024-01-30T08:29:46;0.60;99.90
5779;DHT22;2916;49.798;10.022;2024-01-30T08:32:13;0.60;99.90
5779;DHT22;2916;49.798;10.022;2024-01-30T08:34:40;0.70;99.90
5779;DHT22;2916;49.798;10.022;2024-01-30T08:37:07;0.70;99.90
5779;DHT22;2916;49.798;10.022;2024-01-30T08:39:35;0.80;99.90
5779;DHT22;2916;49.798;10.022;2024-01-30T08:42:02;0.90;99.90
5779;DHT22;2916;49.798;10.022;2024-01-30T08:44:29;0.90;99.90
5779;DHT22;2916;49.798;10.022;2024-01-30T08:46:56;1.00;99.90
5779;DHT22;2916;49.798;10.022;2024-01-30T08:49:23;1.10;99.90
5779;DHT22;2916;49.798;10.022;2024-01-30T08:51:50;1.20;99.90
5779;DHT22;2916;49.798;10.022;2024-01-30T08:54:17;1.40;99.90
5779;DHT22;2916;49.798;10.022;2024-01-30T08:56:45;1.40;99.90
5779;DHT22;2916;49.798;10.022;2024-01-30T08:59:12;1.40;99.90
5779;DHT22;2916;49.798;10.022;2024-01-30T09:01:39;1.50;99.90
5779;DHT22;2916;49.798;10.022;2024-01-30T09:04:06;1.70;99.90
5779;DHT22;2916;49.798;10.022;2024-01-30T09:06:33;1.80;99.60
5779;DHT22;2916;49.798;10.022;2024-01-30T09:09:00;1.90;98.40
5779;DHT22;2916;49.798;10.022;2024-01-30T09:11:28;1.90;96.10
5779;DHT22;2916;49.798;10.022;2024-01-30T09:13:56;1.90;93.90
5779;DHT22;2916;49.798;10.022;2024-01-30T09:16:23;2.00;93.00
5779;DHT22;2916;49.798;10.022;2024-01-30T09:18:50;2.10;92.50
5779;DHT22;2916;49.798;10.022;2024-01-30T09:21:17;2.20;89.80
5779;DHT22;2916;49.798;10.022;2024-01-30T09:23:44;2.30;89.00
5779;DHT22;2916;49.798;10.022;2024-01-30T09:26:11;2.40;84.80
5779;DHT22;2916;49.798;10.022;2024-01-30T09:28:38;2.50;82.10
5779;DHT22;2916;49.798;10.022;2024-01-30T09:31:11;2.60;75.20
5779;DHT22;2916;49.798;10.022;2024-01-30T09:33:38;2.60;67.80
5779;DHT22;2916;49.798;10.022;2024-01-30T09:36:06;2.60;63.00
5779;DHT22;2916;49.798;10.022;2024-01-30T09:38:33;2.80;60.10
5779;DHT22;2916;49.798;10.022;2024-01-30T09:41:03;2.90;60.70
5779;DHT22;2916;49.798;10.022;2024-01-30T09:43:33;3.00;54.20
5779;DHT22;2916;49.798;10.022;2024-01-30T09:46:02;3.10;52.30
5779;DHT22;2916;49.798;10.022;2024-01-30T09:48:32;3.20;46.30
5779;DHT22;2916;49.798;10.022;2024-01-30T09:51:00;3.30;42.80
5779;DHT22;2916;49.798;10.022;2024-01-30T09:53:27;3.20;37.70
5779;DHT22;2916;49.798;10.022;2024-01-30T09:55:54;3.30;31.60
5779;DHT22;2916;49.798;10.022;2024-01-30T09:58:21;3.30;30.90
5779;DHT22;2916;49.798;10.022;2024-01-30T10:00:48;3.50;30.00
5779;DHT22;2916;49.798;10.022;2024-01-30T10:03:15;3.50;25.90
5779;DHT22;2916;49.798;10.022;2024-01-30T10:05:47;3.70;26.50
5779;DHT22;2916;49.798;10.022;2024-01-30T10:08:17;3.80;23.20
5779;DHT22;2916;49.798;10.022;2024-01-30T10:10:46;3.90;25.00
5779;DHT22;2916;49.798;10.022;2024-01-30T10:13:13;3.90;27.60
5779;DHT22;2916;49.798;10.022;2024-01-30T10:15:40;3.90;28.90
5779;DHT22;2916;49.798;10.022;2024-01-30T10:18:08;4.00;29.50
5779;DHT22;2916;49.798;10.022;2024-01-30T10:20:36;3.90;28.10
5779;DHT22;2916;49.798;10.022;2024-01-30T10:23:04;3.90;25.90
5779;DHT22;2916;49.798;10.022;2024-01-30T10:25:31;4.00;27.80
5779;DHT22;2916;49.798;10.022;2024-01-30T10:27:59;3.90;25.10
5779;DHT22;2916;49.798;10.022;2024-01-30T10:30:27;4.00;26.90
5779;DHT22;2916;49.798;10.022;2024-01-30T10:32:54;4.10;24.70
5779;DHT22;2916;49.798;10.022;2024-01-30T10:35:21;4.00;19.30
5779;DHT22;2916;49.798;10.022;2024-01-30T10:37:48;4.00;17.70
5779;DHT22;2916;49.798;10.022;2024-01-30T10:40:16;4.10;17.50
5779;DHT22;2916;49.798;10.022;2024-01-30T10:42:45;4.30;19.10
5779;DHT22;2916;49.798;10.022;2024-01-30T10:45:13;4.40;17.50
5779;DHT22;2916;49.798;10.022;2024-01-30T10:47:46;4.60;16.80
5779;DHT22;2916;49.798;10.022;2024-01-30T10:50:15;4.60;13.80
5779;DHT22;2916;49.798;10.022;2024-01-30T10:52:46;4.70;13.70
5779;DHT22;2916;49.798;10.022;2024-01-30T10:55:17;4.70;9.20
5779;DHT22;2916;49.798;10.022;2024-01-30T10:57:45;4.80;7.30
5779;DHT22;2916;49.798;10.022;2024-01-30T11:00:14;4.90;10.70
5779;DHT22;2916;49.798;10.022;2024-01-30T11:02:43;5.00;11.30
5779;DHT22;2916;49.798;10.022;2024-01-30T11:05:10;5.00;4.50
5779;DHT22;2916;49.798;10.022;2024-01-30T11:07:39;5.10;1.00
5779;DHT22;2916;49.798;10.022;2024-01-30T11:10:07;5.20;1.00
5779;DHT22;2916;49.798;10.022;2024-01-30T11:12:40;5.30;1.00
5779;DHT22;2916;49.798;10.022;2024-01-30T11:15:09;5.40;1.00
5779;DHT22;2916;49.798;10.022;2024-01-30T11:17:44;5.50;1.00
5779;DHT22;2916;49.798;10.022;2024-01-30T11:20:12;5.60;1.00
5779;DHT22;2916;49.798;10.022;2024-01-30T11:22:42;5.70;1.00
5779;DHT22;2916;49.798;10.022;2024-01-30T11:25:14;5.80;1.00
5779;DHT22;2916;49.798;10.022;2024-01-30T11:27:43;5.80;1.00
5779;DHT22;2916;49.798;10.022;2024-01-30T11:30:11;5.90;1.00
5779;DHT22;2916;49.798;10.022;2024-01-30T11:32:38;5.90;1.00
5779;DHT22;2916;49.798;10.022;2024-01-30T11:35:05;6.00;1.00
5779;DHT22;2916;49.798;10.022;2024-01-30T11:37:37;6.00;1.00
5779;DHT22;2916;49.798;10.022;2024-01-30T11:40:05;6.00;1.00
5779;DHT22;2916;49.798;10.022;2024-01-30T11:42:32;6.10;1.00
5779;DHT22;2916;49.798;10.022;2024-01-30T11:45:02;6.20;1.00
5779;DHT22;2916;49.798;10.022;2024-01-30T11:47:29;6.30;1.00
5779;DHT22;2916;49.798;10.022;2024-01-30T11:49:57;6.30;1.00
5779;DHT22;2916;49.798;10.022;2024-01-30T11:52:24;6.50;1.00
5779;DHT22;2916;49.798;10.022;2024-01-30T11:54:51;6.50;1.00
5779;DHT22;2916;49.798;10.022;2024-01-30T11:57:18;6.60;1.00
5779;DHT22;2916;49.798;10.022;2024-01-30T11:59:45;6.70;1.00
5779;DHT22;2916;49.798;10.022;2024-01-30T12:02:16;6.70;1.00
5779;DHT22;2916;49.798;10.022;2024-01-30T12:04:43;6.90;1.00
5779;DHT22;2916;49.798;10.022;2024-01-30T12:07:11;7.00;1.00
5779;DHT22;2916;49.798;10.022;2024-01-30T12:09:38;7.00;1.00
5779;DHT22;2916;49.798;10.022;2024-01-30T12:12:07;7.10;1.00
5779;DHT22;2916;49.798;10.022;2024-01-30T12:14:38;7.10;1.00
5779;DHT22;2916;49.798;10.022;2024-01-30T12:17:05;7.20;1.00
5779;DHT22;2916;49.798;10.022;2024-01-30T12:19:35;7.20;1.00
5779;DHT22;2916;49.798;10.022;2024-01-30T12:22:03;7.30;1.00
5779;DHT22;2916;49.798;10.022;2024-01-30T12:24:30;7.40;1.00
5779;DHT22;2916;49.798;10.022;2024-01-30T12:26:57;7.40;1.00
5779;DHT22;2916;49.798;10.022;2024-01-30T12:29:25;7.50;1.00
5779;DHT22;2916;49.798;10.022;2024-01-30T12:31:53;7.60;1.00
5779;DHT22;2916;49.798;10.022;2024-01-30T12:34:20;7.60;1.00
5779;DHT22;2916;49.798;10.022;2024-01-30T12:36:49;7.60;1.00
5779;DHT22;2916;49.798;10.022;2024-01-30T12:39:16;7.70;1.00
5779;DHT22;2916;49.798;10.022;2024-01-30T12:41:44;7.90;1.00
5779;DHT22;2916;49.798;10.022;2024-01-30T12:44:13;7.90;1.00
5779;DHT22;2916;49.798;10.022;2024-01-30T12:46:40;8.00;1.00
5779;DHT22;2916;49.798;10.022;2024-01-30T12:49:07;8.00;1.00
5779;DHT22;2916;49.798;10.022;2024-01-30T12:51:34;8.20;1.00
5779;DHT22;2916;49.798;10.022;2024-01-30T12:54:06;8.10;1.00
5779;DHT22;2916;49.798;10.022;2024-01-30T12:56:33;8.20;1.00
5779;DHT22;2916;49.798;10.022;2024-01-30T12:59:00;8.20;1.00
5779;DHT22;2916;49.798;10.022;2024-01-30T13:01:27;8.30;1.00
5779;DHT22;2916;49.798;10.022;2024-01-30T13:03:54;8.40;1.00
5779;DHT22;2916;49.798;10.022;2024-01-30T13:06:23;8.40;1.00
5779;DHT22;2916;49.798;10.022;2024-01-30T13:08:49;8.40;1.00
5779;DHT22;2916;49.798;10.022;2024-01-30T13:11:18;8.50;1.00
5779;DHT22;2916;49.798;10.022;2024-01-30T13:13:45;8.50;1.00
5779;DHT22;2916;49.798;10.022;2024-01-30T13:16:12;8.70;1.00
5779;DHT22;2916;49.798;10.022;2024-01-30T13:18:39;8.70;1.00
5779;DHT22;2916;49.798;10.022;2024-01-30T13:21:06;8.80;1.00
5779;DHT22;2916;49.798;10.022;2024-01-30T13:23:33;8.80;1.00
5779;DHT22;2916;49.798;10.022;2024-01-30T13:26:00;8.80;1.00
5779;DHT22;2916;49.798;10.022;2024-01-30T13:28:29;8.90;1.00
5779;DHT22;2916;49.798;10.022;2024-01-30T13:30:56;8.90;1.00
5779;DHT22;2916;49.798;10.022;2024-01-30T13:33:23;8.80;1.00
5779;DHT22;2916;49.798;10.022;2024-01-30T13:35:50;8.90;1.00
5779;DHT22;2916;49.798;10.022;2024-01-30T13:38:17;9.00;1.00
5779;DHT22;2916;49.798;10.022;2024-01-30T13:40:44;9.00;1.00
5779;DHT22;2916;49.798;10.022;2024-01-30T13:43:11;9.10;1.00
5779;DHT22;2916;49.798;10.022;2024-01-30T13:45:39;9.10;1.00
5779;DHT22;2916;49.798;10.022;2024-01-30T13:48:08;9.20;1.00
5779;DHT22;2916;49.798;10.022;2024-01-30T13:50:35;9.20;1.00
5779;DHT22;2916;49.798;10.022;2024-01-30T13:53:03;9.30;1.00
5779;DHT22;2916;49.798;10.022;2024-01-30T13:55:30;9.30;1.00
5779;DHT22;2916;49.798;10.022;2024-01-30T13:57:57;9.30;1.00
5779;DHT22;2916;49.798;10.022;2024-01-30T14:00:24;9.30;1.00
5779;DHT22;2916;49.798;10.022;2024-01-30T14:02:53;9.30;1.00
5779;DHT22;2916;49.798;10.022;2024-01-30T14:05:21;9.30;1.00
5779;DHT22;2916;49.798;10.022;2024-01-30T14:07:48;9.40;1.00
5779;DHT22;2916;49.798;10.022;2024-01-30T14:10:15;9.50;1.00
5779;DHT22;2916;49.798;10.022;2024-01-30T14:12:42;9.50;1.00
5779;DHT22;2916;49.798;10.022;2024-01-30T14:15:10;9.50;1.00
5779;DHT22;2916;49.798;10.022;2024-01-30T14:17:38;9.50;1.00
5779;DHT22;2916;49.798;10.022;2024-01-30T14:20:07;9.50;1.00
5779;DHT22;2916;49.798;10.022;2024-01-30T14:22:35;9.40;1.00
5779;DHT22;2916;49.798;10.022;2024-01-30T14:25:02;9.40;1.00
5779;DHT22;2916;49.798;10.022;2024-01-30T14:27:30;9.40;1.00
5779;DHT22;2916;49.798;10.022;2024-01-30T14:29:57;9.30;1.00
5779;DHT22;2916;49.798;10.022;2024-01-30T14:32:24;9.30;1.00
5779;DHT22;2916;49.798;10.022;2024-01-30T14:34:51;9.30;1.00
5779;DHT22;2916;49.798;10.022;2024-01-30T14:37:20;9.30;1.00
5779;DHT22;2916;49.798;10.022;2024-01-30T14:39:47;9.30;1.00
5779;DHT22;2916;49.798;10.022;2024-01-30T14:42:14;9.20;1.00
5779;DHT22;2916;49.798;10.022;2024-01-30T14:44:42;9.10;1.00
5779;DHT22;2916;49.798;10.022;2024-01-30T14:47:09;9.10;1.00
5779;DHT22;2916;49.798;10.022;2024-01-30T14:49:36;9.10;1.00
5779;DHT22;2916;49.798;10.022;2024-01-30T14:52:03;9.00;1.00
5779;DHT22;2916;49.798;10.022;2024-01-30T14:54:32;8.90;1.00
5779;DHT22;2916;49.798;10.022;2024-01-30T14:56:59;8.90;1.00
5779;DHT22;2916;49.798;10.022;2024-01-30T14:59:26;9.00;1.00
5779;DHT22;2916;49.798;10.022;2024-01-30T15:01:53;9.00;1.00
5779;DHT22;2916;49.798;10.022;2024-01-30T15:04:20;9.00;1.00
5779;DHT22;2916;49.798;10.022;2024-01-30T15:06:48;9.00;1.00
5779;DHT22;2916;49.798;10.022;2024-01-30T15:09:15;9.10;1.00
5779;DHT22;2916;49.798;10.022;2024-01-30T15:11:44;9.10;1.00
5779;DHT22;2916;49.798;10.022;2024-01-30T15:14:11;9.10;1.00
5779;DHT22;2916;49.798;10.022;2024-01-30T15:16:38;9.10;1.00
5779;DHT22;2916;49.798;10.022;2024-01-30T15:19:06;9.00;1.00
5779;DHT22;2916;49.798;10.022;2024-01-30T15:21:33;8.90;1.00
5779;DHT22;2916;49.798;10.022;2024-01-30T15:24:00;8.90;1.00
5779;DHT22;2916;49.798;10.022;2024-01-30T15:26:27;8.90;1.00
5779;DHT22;2916;49.798;10.022;2024-01-30T15:28:56;8.90;1.00
5779;DHT22;2916;49.798;10.022;2024-01-30T15:31:23;8.90;1.00
5779;DHT22;2916;49.798;10.022;2024-01-30T15:33:50;8.90;1.00
5779;DHT22;2916;49.798;10.022;2024-01-30T15:36:17;8.90;1.00
5779;DHT22;2916;49.798;10.022;2024-01-30T15:38:44;8.80;1.00
5779;DHT22;2916;49.798;10.022;2024-01-30T15:41:11;8.80;1.00
5779;DHT22;2916;49.798;10.022;2024-01-30T15:43:38;8.70;1.00
5779;DHT22;2916;49.798;10.022;2024-01-30T15:46:07;8.80;1.00
5779;DHT22;2916;49.798;10.022;2024-01-30T15:48:34;8.80;1.00
5779;DHT22;2916;49.798;10.022;2024-01-30T15:51:01;8.80;1.00
5779;DHT22;2916;49.798;10.022;2024-01-30T15:53:28;8.80;1.00
5779;DHT22;2916;49.798;10.022;2024-01-30T15:55:55;8.70;1.00
5779;DHT22;2916;49.798;10.022;2024-01-30T15:58:22;8.70;1.00
5779;DHT22;2916;49.798;10.022;2024-01-30T16:00:49;8.70;1.00
5779;DHT22;2916;49.798;10.022;2024-01-30T16:03:17;8.60;1.00